Time;durP1;ratioP1;P1;durP2;ratioP2;P2;SDS_P1;SDS_P2;PMS_P1;PMS_P2;Temp;Humidity;BMP_temperature;BMP_pressure;BME280_temperature;BME280_humidity;BME280_pressure;Samples;Min_cycle;Max_cycle;Signal;HPM_P1;HPM_P2
2021/10/19 00:01:32;;;;;;;0.30;0.20;;;11.50;99.90;;;;;;5033839;28;20599;-64
2021/10/19 00:03:58;;;;;;;3.13;2.83;;;11.30;99.90;;;;;;5033902;28;20537;-65
2021/10/19 00:06:23;;;;;;;0.80;0.30;;;11.20;99.90;;;;;;5033982;28;20173;-68
2021/10/19 00:08:49;;;;;;;0.30;0.20;;;11.30;99.90;;;;;;5033544;28;20182;-64
2021/10/19 00:11:14;;;;;;;0.63;0.60;;;11.30;99.90;;;;;;5033854;28;20166;-67
2021/10/19 00:13:41;;;;;;;1.27;1.17;;;11.30;99.90;;;;;;5016036;28;20200;-68
2021/10/19 00:16:09;;;;;;;4.03;1.70;;;11.30;99.90;;;;;;5036954;28;20544;-64
2021/10/19 00:18:35;;;;;;;0.30;0.30;;;11.30;99.90;;;;;;5019958;28;20255;-68
2021/10/19 00:21:01;;;;;;;0.30;0.20;;;11.20;99.90;;;;;;5037599;28;20264;-64
2021/10/19 00:23:27;;;;;;;0.30;0.20;;;11.20;99.90;;;;;;5037371;28;20296;-64
2021/10/19 00:25:53;;;;;;;2.50;0.97;;;11.20;99.90;;;;;;5037590;28;20177;-64
2021/10/19 00:28:19;;;;;;;0.30;0.20;;;11.20;99.90;;;;;;5037327;28;20611;-67
2021/10/19 00:30:44;;;;;;;0.50;0.43;;;11.10;99.90;;;;;;5037336;28;20193;-65
2021/10/19 00:33:10;;;;;;;0.30;0.23;;;11.20;99.90;;;;;;5037355;28;20563;-64
2021/10/19 00:35:36;;;;;;;3.33;2.10;;;11.30;99.90;;;;;;5037267;28;20170;-68
2021/10/19 00:38:01;;;;;;;0.30;0.20;;;11.30;99.90;;;;;;5037116;28;20177;-67
2021/10/19 00:40:27;;;;;;;0.40;0.33;;;11.30;99.90;;;;;;5037194;28;20625;-67
2021/10/19 00:42:54;;;;;;;0.50;0.43;;;11.30;99.90;;;;;;5037233;28;20177;-64
2021/10/19 00:45:19;;;;;;;0.30;0.20;;;11.30;99.90;;;;;;5037265;28;20220;-67
2021/10/19 00:47:51;;;;;;;0.50;0.40;;;11.30;99.90;;;;;;5037123;28;20466;-64
2021/10/19 00:50:18;;;;;;;0.75;0.75;;;11.40;99.90;;;;;;5037001;28;20188;-67
2021/10/19 00:52:45;;;;;;;1.85;1.75;;;11.30;99.90;;;;;;5019344;28;20185;-67
2021/10/19 00:55:12;;;;;;;0.30;0.20;;;11.40;99.90;;;;;;5036901;28;20704;-65
2021/10/19 00:57:38;;;;;;;0.30;0.20;;;11.50;99.90;;;;;;5036946;28;20185;-68
2021/10/19 01:00:05;;;;;;;1.63;1.00;;;11.50;99.90;;;;;;5036659;28;20181;-68
2021/10/19 01:02:31;;;;;;;0.30;0.20;;;11.50;99.90;;;;;;5036820;28;20178;-65
2021/10/19 01:04:56;;;;;;;0.30;0.20;;;11.60;99.90;;;;;;5036619;28;20296;-64
2021/10/19 01:07:23;;;;;;;1.80;1.23;;;11.60;91.00;;;;;;5019218;28;20181;-64
2021/10/19 01:09:49;;;;;;;0.30;0.20;;;11.60;65.20;;;;;;5036307;28;20191;-62
2021/10/19 01:12:14;;;;;;;0.40;0.20;;;11.60;62.50;;;;;;5036395;28;20193;-65
2021/10/19 01:14:40;;;;;;;0.30;0.20;;;11.60;52.50;;;;;;5036476;28;20516;-63
2021/10/19 01:17:08;;;;;;;0.30;0.20;;;11.70;59.40;;;;;;5036539;28;20492;-63
2021/10/19 01:19:34;;;;;;;1.08;1.08;;;11.60;45.50;;;;;;5036231;28;20513;-62
2021/10/19 01:22:03;;;;;;;0.30;0.20;;;11.70;44.90;;;;;;5036401;28;20177;-65
2021/10/19 01:24:28;;;;;;;0.30;0.30;;;11.70;49.20;;;;;;5036362;28;20213;-62
2021/10/19 01:26:54;;;;;;;0.40;0.30;;;11.70;28.50;;;;;;5017442;28;20209;-62
2021/10/19 01:29:20;;;;;;;3.80;0.83;;;11.60;29.30;;;;;;5036153;28;20177;-62
2021/10/19 01:31:47;;;;;;;0.30;0.20;;;11.70;41.30;;;;;;5018654;28;20188;-62
2021/10/19 01:34:14;;;;;;;0.30;0.30;;;11.70;31.60;;;;;;5035991;28;20196;-62
2021/10/19 01:36:40;;;;;;;0.30;0.25;;;11.80;15.30;;;;;;5035976;28;20689;-62
2021/10/19 01:39:06;;;;;;;0.30;0.20;;;11.80;2.70;;;;;;5018211;28;20280;-62
2021/10/19 01:41:32;;;;;;;0.30;0.20;;;11.80;13.90;;;;;;5036084;28;20528;-63
2021/10/19 01:43:58;;;;;;;0.47;0.45;;;11.90;5.90;;;;;;5035989;28;20231;-62
2021/10/19 01:46:23;;;;;;;0.40;0.40;;;11.70;7.00;;;;;;5035887;28;20674;-62
2021/10/19 01:48:49;;;;;;;0.40;0.30;;;11.80;28.00;;;;;;5035608;28;20189;-62
2021/10/19 01:51:14;;;;;;;1.90;1.50;;;11.90;24.60;;;;;;5035797;28;20201;-62
2021/10/19 01:53:40;;;;;;;0.70;0.60;;;11.80;1.00;;;;;;5035765;28;20217;-62
2021/10/19 01:56:06;;;;;;;1.13;1.03;;;11.80;1.00;;;;;;5035636;28;20502;-63
2021/10/19 01:58:31;;;;;;;3.70;1.53;;;11.70;5.30;;;;;;5035446;28;20559;-66
2021/10/19 02:00:57;;;;;;;0.30;0.20;;;11.80;23.90;;;;;;5035882;28;20177;-66
2021/10/19 02:03:23;;;;;;;0.30;0.20;;;11.80;13.40;;;;;;5035639;28;20268;-66
2021/10/19 02:05:49;;;;;;;0.63;0.50;;;11.90;14.50;;;;;;5035777;28;20192;-66
2021/10/19 02:08:15;;;;;;;2.25;0.55;;;11.90;1.00;;;;;;5017706;28;20535;-62
2021/10/19 02:10:41;;;;;;;0.30;0.17;;;11.90;14.50;;;;;;5035440;28;20292;-63
2021/10/19 02:13:08;;;;;;;0.77;0.77;;;12.00;1.20;;;;;;5035221;28;20626;-63
2021/10/19 02:15:34;;;;;;;1.23;1.15;;;12.00;5.10;;;;;;5035359;28;20630;-63
2021/10/19 02:18:00;;;;;;;0.30;0.23;;;12.00;1.00;;;;;;5034952;28;20185;-67
2021/10/19 02:20:27;;;;;;;0.30;0.30;;;12.10;1.00;;;;;;5035310;28;20435;-67
2021/10/19 02:22:53;;;;;;;0.50;0.50;;;12.10;1.00;;;;;;5035246;28;20537;-67
2021/10/19 02:25:19;;;;;;;0.30;0.30;;;12.20;1.00;;;;;;5035119;28;20288;-68
2021/10/19 02:27:46;;;;;;;2.75;0.47;;;12.20;1.00;;;;;;5035117;28;20882;-67
2021/10/19 02:30:12;;;;;;;0.30;0.20;;;12.30;1.00;;;;;;5034891;28;20185;-67
2021/10/19 02:32:39;;;;;;;0.93;0.93;;;12.20;1.00;;;;;;5035037;28;20235;-67
2021/10/19 02:35:07;;;;;;;1.15;0.75;;;12.20;1.00;;;;;;5034991;28;20186;-67
2021/10/19 02:37:32;;;;;;;1.30;1.20;;;12.10;1.00;;;;;;5034664;28;20239;-64
2021/10/19 02:39:58;;;;;;;2.80;1.13;;;12.00;1.00;;;;;;5034653;28;20173;-64
2021/10/19 02:42:23;;;;;;;1.07;0.97;;;11.90;1.00;;;;;;5034649;28;20613;-68
2021/10/19 02:44:49;;;;;;;0.30;0.10;;;11.70;23.50;;;;;;5034645;28;20377;-64
2021/10/19 02:47:14;;;;;;;2.53;2.33;;;11.80;67.70;;;;;;5034949;28;20609;-67
2021/10/19 02:49:40;;;;;;;0.40;0.30;;;11.80;66.00;;;;;;5034608;28;20219;-64
2021/10/19 02:52:07;;;;;;;2.50;2.30;;;11.80;93.80;;;;;;5034772;28;20170;-64
2021/10/19 02:54:34;;;;;;;0.85;0.80;;;11.70;93.40;;;;;;5034681;28;20189;-64
2021/10/19 02:57:00;;;;;;;0.30;0.20;;;11.80;99.90;;;;;;5034571;28;20463;-64
2021/10/19 02:59:25;;;;;;;0.30;0.20;;;11.70;99.90;;;;;;5016757;28;20239;-64
2021/10/19 03:01:51;;;;;;;1.70;1.60;;;11.70;99.90;;;;;;5034493;28;20427;-64
2021/10/19 03:04:16;;;;;;;0.30;0.20;;;11.70;99.90;;;;;;5034449;28;20216;-63
2021/10/19 03:06:42;;;;;;;0.77;0.77;;;11.70;99.90;;;;;;5034605;28;20182;-64
2021/10/19 03:09:07;;;;;;;1.77;1.43;;;11.70;99.90;;;;;;5016620;28;20173;-64
2021/10/19 03:11:33;;;;;;;1.17;0.70;;;11.70;99.90;;;;;;5034109;28;20588;-66
2021/10/19 03:13:58;;;;;;;0.30;0.20;;;11.50;99.90;;;;;;5034214;28;20189;-64
2021/10/19 03:16:24;;;;;;;1.17;1.07;;;11.60;99.90;;;;;;5016918;28;20223;-64
2021/10/19 03:18:49;;;;;;;1.47;1.03;;;11.60;99.90;;;;;;5033844;28;20186;-64
2021/10/19 03:21:16;;;;;;;1.03;1.03;;;11.50;99.90;;;;;;5034059;28;20192;-65
2021/10/19 03:23:41;;;;;;;0.40;0.30;;;11.50;99.90;;;;;;5033959;28;20208;-64
2021/10/19 03:26:07;;;;;;;0.30;0.20;;;11.50;99.90;;;;;;5034290;28;20185;-64
2021/10/19 03:28:32;;;;;;;0.40;0.40;;;11.60;99.90;;;;;;5034059;28;20186;-64
2021/10/19 03:30:58;;;;;;;0.30;0.20;;;11.70;99.90;;;;;;5034273;28;20189;-65
2021/10/19 03:33:24;;;;;;;0.30;0.20;;;11.80;99.90;;;;;;5034322;28;20646;-64
2021/10/19 03:35:50;;;;;;;3.77;3.57;;;11.80;99.90;;;;;;5034162;28;20421;-64
2021/10/19 03:38:15;;;;;;;0.40;0.40;;;11.90;99.90;;;;;;5033719;28;20507;-64
2021/10/19 03:40:41;;;;;;;0.30;0.20;;;11.90;99.90;;;;;;5034144;28;20215;-67
2021/10/19 03:43:06;;;;;;;1.90;0.77;;;11.90;99.90;;;;;;5034041;28;20181;-64
2021/10/19 03:45:32;;;;;;;0.30;0.20;;;11.90;99.90;;;;;;5034013;28;20224;-64
2021/10/19 03:47:58;;;;;;;0.60;0.50;;;11.90;99.90;;;;;;5034047;28;20235;-64
2021/10/19 03:50:23;;;;;;;2.77;1.33;;;12.10;93.30;;;;;;5036045;28;20178;-64
2021/10/19 03:52:49;;;;;;;0.30;0.20;;;12.10;66.10;;;;;;5037923;28;20174;-63
2021/10/19 03:55:15;;;;;;;2.50;1.53;;;12.00;94.50;;;;;;5037926;28;20665;-63
2021/10/19 03:57:41;;;;;;;0.40;0.32;;;11.90;99.90;;;;;;5037923;28;20181;-63
2021/10/19 04:00:08;;;;;;;0.80;0.50;;;11.90;99.90;;;;;;5037401;28;20180;-67
2021/10/19 04:02:34;;;;;;;0.60;0.60;;;11.90;99.90;;;;;;5036269;28;20177;-67
2021/10/19 04:04:59;;;;;;;0.67;0.53;;;12.00;99.90;;;;;;5019632;28;20224;-67
2021/10/19 04:07:25;;;;;;;7.63;4.73;;;12.00;99.90;;;;;;5037076;28;20174;-67
2021/10/19 04:09:50;;;;;;;0.40;0.37;;;11.80;99.90;;;;;;5019411;28;20182;-67
2021/10/19 04:12:16;;;;;;;0.50;0.40;;;11.80;99.90;;;;;;5019684;28;20248;-67
2021/10/19 04:14:41;;;;;;;0.30;0.20;;;11.90;99.90;;;;;;5037097;28;20215;-67
2021/10/19 04:17:07;;;;;;;0.30;0.20;;;12.00;99.90;;;;;;5036859;28;20512;-67
2021/10/19 04:19:33;;;;;;;0.30;0.20;;;12.00;99.90;;;;;;5036747;28;20209;-67
2021/10/19 04:21:58;;;;;;;1.30;1.23;;;12.10;99.90;;;;;;5037241;28;20346;-67
2021/10/19 04:24:24;;;;;;;1.77;0.73;;;12.10;99.90;;;;;;5019950;28;20219;-67
2021/10/19 04:26:49;;;;;;;5.87;4.33;;;12.20;99.90;;;;;;5036786;28;20181;-67
2021/10/19 04:29:15;;;;;;;3.13;2.73;;;12.00;99.90;;;;;;5036606;28;20173;-67
2021/10/19 04:31:41;;;;;;;1.57;1.47;;;12.00;99.90;;;;;;5019253;28;20304;-67
2021/10/19 04:34:07;;;;;;;0.55;0.55;;;12.00;99.90;;;;;;5036766;28;20594;-67
2021/10/19 04:36:33;;;;;;;2.00;1.80;;;12.00;99.90;;;;;;5036610;28;20643;-67
2021/10/19 04:38:59;;;;;;;2.50;0.93;;;12.10;99.90;;;;;;5036499;28;20527;-67
2021/10/19 04:41:24;;;;;;;2.10;2.00;;;12.10;99.90;;;;;;5019183;28;20684;-67
2021/10/19 04:43:50;;;;;;;2.30;2.10;;;12.10;99.90;;;;;;5036519;28;20590;-68
2021/10/19 04:46:16;;;;;;;1.33;0.83;;;12.10;99.90;;;;;;5036317;28;20236;-67
2021/10/19 04:48:41;;;;;;;0.30;0.27;;;12.10;99.90;;;;;;5018822;28;20185;-67
2021/10/19 04:51:09;;;;;;;3.30;2.20;;;12.10;99.90;;;;;;5019086;28;20192;-67
2021/10/19 04:53:35;;;;;;;9.65;4.13;;;12.10;99.90;;;;;;5036717;28;20201;-67
2021/10/19 04:56:01;;;;;;;0.40;0.40;;;12.10;99.90;;;;;;5036431;28;20193;-64
2021/10/19 04:58:27;;;;;;;1.08;0.68;;;12.30;99.90;;;;;;5018600;28;20220;-64
2021/10/19 05:00:52;;;;;;;1.47;1.37;;;12.30;99.90;;;;;;5036143;28;20170;-64
2021/10/19 05:03:23;;;;;;;0.50;0.50;;;12.40;99.90;;;;;;5036309;28;20173;-67
2021/10/19 05:05:49;;;;;;;2.92;1.67;;;12.60;99.90;;;;;;5036201;28;20497;-67
2021/10/19 05:08:14;;;;;;;1.35;1.35;;;12.60;90.40;;;;;;5036282;28;20196;-67
2021/10/19 05:10:42;;;;;;;1.23;1.10;;;12.60;94.50;;;;;;5036133;28;20517;-67
2021/10/19 05:13:08;;;;;;;3.50;2.35;;;12.60;84.20;;;;;;5036572;28;20185;-67
2021/10/19 05:15:33;;;;;;;1.43;1.43;;;12.50;99.90;;;;;;5018536;28;20577;-67
2021/10/19 05:17:59;;;;;;;0.60;0.50;;;12.60;99.90;;;;;;5035696;28;20223;-64
2021/10/19 05:20:24;;;;;;;0.77;0.77;;;12.50;99.90;;;;;;5036169;28;20216;-64
2021/10/19 05:22:50;;;;;;;0.30;0.20;;;12.60;99.90;;;;;;5035928;28;20260;-67
2021/10/19 05:25:16;;;;;;;0.40;0.20;;;12.70;98.40;;;;;;5035822;28;20201;-67
2021/10/19 05:27:42;;;;;;;0.50;0.50;;;12.70;99.60;;;;;;5018486;28;20181;-67
2021/10/19 05:30:08;;;;;;;0.70;0.53;;;13.00;91.10;;;;;;5035507;28;20177;-67
2021/10/19 05:32:34;;;;;;;1.70;1.67;;;12.90;30.20;;;;;;5035648;28;20771;-67
2021/10/19 05:35:00;;;;;;;1.03;0.93;;;12.80;24.80;;;;;;5035333;28;20243;-68
2021/10/19 05:37:26;;;;;;;6.97;3.13;;;12.80;48.80;;;;;;5035354;28;20949;-68
2021/10/19 05:39:51;;;;;;;2.20;0.87;;;12.70;60.90;;;;;;5034944;28;20268;-63
2021/10/19 05:42:17;;;;;;;0.30;0.20;;;12.50;98.50;;;;;;5035191;28;20239;-63
2021/10/19 05:44:43;;;;;;;3.43;3.00;;;12.70;99.90;;;;;;5035676;28;20240;-63
2021/10/19 05:47:08;;;;;;;0.40;0.40;;;12.60;99.90;;;;;;5035783;28;20170;-63
2021/10/19 05:49:34;;;;;;;1.23;1.13;;;12.60;99.90;;;;;;5035422;28;20182;-63
2021/10/19 05:52:00;;;;;;;1.23;0.63;;;12.50;99.90;;;;;;5034890;28;20193;-63
2021/10/19 05:54:26;;;;;;;1.27;1.17;;;12.50;99.90;;;;;;5034899;28;20561;-63
2021/10/19 05:56:53;;;;;;;0.40;0.40;;;12.50;99.90;;;;;;5034854;28;20236;-63
2021/10/19 05:59:19;;;;;;;0.30;0.20;;;12.60;99.90;;;;;;5034440;28;20193;-63
2021/10/19 06:01:45;;;;;;;0.47;0.43;;;12.80;99.90;;;;;;5034650;28;20236;-63
2021/10/19 06:04:11;;;;;;;0.30;0.30;;;12.70;99.90;;;;;;5035012;28;20240;-63
2021/10/19 06:06:36;;;;;;;0.40;0.40;;;12.70;99.90;;;;;;5035442;28;20169;-63
2021/10/19 06:09:02;;;;;;;1.37;1.27;;;12.70;99.90;;;;;;5034826;28;20198;-63
2021/10/19 06:11:28;;;;;;;0.83;0.83;;;12.80;99.90;;;;;;5035037;28;20177;-63
2021/10/19 06:13:53;;;;;;;0.67;0.67;;;12.80;99.90;;;;;;5034513;28;20444;-62
2021/10/19 06:16:19;;;;;;;0.30;0.20;;;13.00;99.90;;;;;;5035569;28;20235;-63
2021/10/19 06:18:44;;;;;;;1.37;1.37;;;13.10;99.90;;;;;;5034861;28;20268;-63
2021/10/19 06:21:10;;;;;;;0.30;0.20;;;13.30;99.90;;;;;;5035380;28;20232;-62
2021/10/19 06:23:36;;;;;;;0.87;0.87;;;13.40;99.90;;;;;;5035056;28;20618;-63
2021/10/19 06:26:01;;;;;;;0.40;0.33;;;13.50;91.90;;;;;;5035175;28;20260;-63
2021/10/19 06:28:27;;;;;;;0.47;0.47;;;13.60;62.50;;;;;;5034798;28;20233;-63
2021/10/19 06:30:52;;;;;;;0.30;0.20;;;13.70;1.00;;;;;;5034962;28;20177;-62
2021/10/19 06:33:18;;;;;;;0.70;0.57;;;13.70;1.00;;;;;;5034924;28;20173;-63
2021/10/19 06:35:43;;;;;;;0.40;0.20;;;13.80;1.00;;;;;;5034599;28;20658;-63
2021/10/19 06:38:10;;;;;;;1.53;0.87;;;13.80;1.00;;;;;;5033857;28;20243;-63
2021/10/19 06:40:35;;;;;;;0.40;0.30;;;13.80;1.00;;;;;;5034748;28;20199;-63
2021/10/19 06:43:03;;;;;;;0.70;0.70;;;13.70;1.00;;;;;;5034926;28;20510;-62
2021/10/19 06:45:29;;;;;;;0.68;0.63;;;13.70;1.00;;;;;;5035331;28;20521;-63
2021/10/19 06:47:55;;;;;;;2.10;1.53;;;13.80;1.00;;;;;;5034704;28;20186;-63
2021/10/19 06:50:20;;;;;;;0.30;0.20;;;13.80;1.00;;;;;;5034864;28;20599;-63
2021/10/19 06:52:46;;;;;;;2.40;1.90;;;13.90;1.00;;;;;;5016928;28;20196;-66
2021/10/19 06:55:12;;;;;;;0.40;0.20;;;13.70;1.00;;;;;;5032714;28;20189;-67
2021/10/19 06:57:41;;;;;;;0.67;0.67;;;13.70;1.00;;;;;;5034198;28;20190;-66
2021/10/19 07:00:10;;;;;;;0.35;0.25;;;13.50;1.00;;;;;;5034047;28;20534;-66
2021/10/19 07:02:37;;;;;;;3.55;3.25;;;13.90;7.60;;;;;;5025402;28;20178;-66
2021/10/19 07:05:03;;;;;;;0.88;0.88;;;13.60;1.00;;;;;;5039293;28;20197;-65
2021/10/19 07:07:28;;;;;;;1.40;1.30;;;13.60;20.90;;;;;;5034213;28;20208;-64
2021/10/19 07:09:54;;;;;;;1.23;1.13;;;13.40;65.00;;;;;;5033842;28;20174;-66
2021/10/19 07:12:19;;;;;;;2.83;1.80;;;13.50;99.90;;;;;;5034257;28;20292;-64
2021/10/19 07:14:47;;;;;;;2.60;2.40;;;13.60;99.90;;;;;;5034274;28;20232;-65
2021/10/19 07:17:13;;;;;;;0.93;0.75;;;13.70;58.50;;;;;;5034322;28;20177;-64
2021/10/19 07:19:40;;;;;;;9.27;5.67;;;13.70;1.80;;;;;;5033786;28;20550;-65
2021/10/19 07:22:05;;;;;;;0.73;0.50;;;13.90;10.10;;;;;;5033957;28;20201;-65
2021/10/19 07:24:31;;;;;;;2.30;1.33;;;14.10;14.50;;;;;;5032896;28;20650;-65
2021/10/19 07:26:57;;;;;;;1.83;1.73;;;14.30;1.00;;;;;;5033531;28;20428;-65
2021/10/19 07:29:22;;;;;;;3.07;2.20;;;14.40;1.00;;;;;;5033477;28;20634;-64
2021/10/19 07:31:48;;;;;;;0.40;0.33;;;14.30;1.00;;;;;;5033792;28;20181;-63
2021/10/19 07:34:14;;;;;;;0.30;0.10;;;14.50;1.00;;;;;;5034102;28;20242;-66
2021/10/19 07:36:40;;;;;;;0.40;0.30;;;14.70;1.00;;;;;;5017239;28;20185;-68
2021/10/19 07:39:06;;;;;;;0.67;0.67;;;14.90;1.00;;;;;;5033388;28;20646;-68
2021/10/19 07:41:32;;;;;;;1.95;0.90;;;14.90;1.00;;;;;;5033449;28;20192;-68
2021/10/19 07:43:57;;;;;;;0.40;0.30;;;15.10;1.00;;;;;;5016447;28;20201;-68
2021/10/19 07:46:23;;;;;;;0.40;0.20;;;14.90;1.00;;;;;;5034151;28;20531;-69
2021/10/19 07:48:49;;;;;;;0.40;0.20;;;15.10;1.00;;;;;;5033752;28;20195;-68
2021/10/19 07:51:14;;;;;;;1.90;1.80;;;15.10;1.00;;;;;;5033181;28;20637;-68
2021/10/19 07:53:40;;;;;;;0.40;0.20;;;15.00;1.00;;;;;;5033929;28;20284;-69
2021/10/19 07:56:05;;;;;;;0.40;0.20;;;15.00;1.00;;;;;;5033741;28;20197;-70
2021/10/19 07:58:31;;;;;;;0.40;0.10;;;15.40;1.00;;;;;;5034312;28;20244;-68
2021/10/19 08:00:56;;;;;;;0.40;0.20;;;15.60;1.00;;;;;;5034300;28;20177;-67
2021/10/19 08:03:22;;;;;;;0.40;0.20;;;15.90;99.90;;;;;;5033860;28;20182;-68
2021/10/19 08:05:48;;;;;;;3.90;3.07;;;15.90;99.90;;;;;;5033536;28;20248;-67
2021/10/19 08:08:16;;;;;;;1.90;1.47;;;15.80;99.90;;;;;;5032489;28;20204;-73
2021/10/19 08:10:45;;;;;;;1.80;0.95;;;15.60;1.00;;;;;;5042675;28;20208;-72
2021/10/19 08:13:11;;;;;;;0.83;0.53;;;15.70;1.00;;;;;;5027299;28;20665;-72
2021/10/19 08:15:38;;;;;;;1.38;1.25;;;15.80;1.00;;;;;;5053740;28;20431;-72
2021/10/19 08:18:04;;;;;;;2.30;1.20;;;15.90;1.00;;;;;;5037377;28;20562;-70
2021/10/19 08:20:30;;;;;;;0.52;0.52;;;15.80;1.00;;;;;;5033246;28;20496;-70
2021/10/19 08:22:57;;;;;;;1.80;1.70;;;15.70;1.00;;;;;;5033619;28;20189;-70
2021/10/19 08:25:23;;;;;;;0.60;0.57;;;15.80;1.00;;;;;;5022223;28;20201;-70
2021/10/19 08:27:49;;;;;;;0.63;0.47;;;15.80;1.00;;;;;;5053796;28;20512;-69
2021/10/19 08:30:19;;;;;;;0.90;0.90;;;15.90;1.00;;;;;;5033477;28;20212;-70
2021/10/19 08:32:47;;;;;;;0.40;0.30;;;16.10;1.00;;;;;;5033619;28;20435;-71
2021/10/19 08:35:13;;;;;;;5.57;2.30;;;16.30;1.00;;;;;;5033487;28;20939;-70
2021/10/19 08:37:41;;;;;;;2.90;1.67;;;16.30;99.90;;;;;;5037188;28;20428;-70
2021/10/19 08:40:08;;;;;;;1.57;1.57;;;16.40;99.90;;;;;;5036923;28;20497;-70
2021/10/19 08:42:35;;;;;;;1.70;1.60;;;16.40;99.90;;;;;;5044339;28;20762;-70
2021/10/19 08:45:01;;;;;;;0.50;0.40;;;16.30;99.90;;;;;;5056651;28;20462;-71
2021/10/19 08:47:27;;;;;;;0.50;0.30;;;16.20;1.00;;;;;;5056975;28;20203;-70
2021/10/19 08:49:52;;;;;;;2.10;1.60;;;16.30;99.90;;;;;;5046485;28;20265;-69
2021/10/19 08:52:18;;;;;;;0.40;0.20;;;16.50;99.90;;;;;;5036771;28;20181;-73
2021/10/19 08:54:43;;;;;;;2.70;2.40;;;16.50;99.90;;;;;;5036670;28;20208;-72
2021/10/19 08:57:17;;;;;;;1.70;1.17;;;16.40;99.90;;;;;;5018854;28;20683;-73
2021/10/19 08:59:46;;;;;;;2.77;2.30;;;16.30;1.00;;;;;;5036312;28;20239;-72
2021/10/19 09:02:13;;;;;;;0.97;0.63;;;16.30;1.00;;;;;;5018961;28;20435;-73
2021/10/19 09:04:39;;;;;;;0.40;0.20;;;16.20;1.00;;;;;;5036422;28;20467;-71
2021/10/19 09:07:05;;;;;;;0.50;0.27;;;16.40;1.00;;;;;;5036309;28;20420;-70
2021/10/19 09:09:32;;;;;;;0.40;0.20;;;16.40;1.00;;;;;;5033538;28;20521;-73
2021/10/19 09:11:57;;;;;;;0.50;0.47;;;16.60;1.00;;;;;;5035405;28;20185;-75
2021/10/19 09:14:34;;;;;;;2.77;1.23;;;16.50;1.00;;;;;;5035786;28;20451;-75
2021/10/19 09:17:02;;;;;;;0.87;0.87;;;16.40;1.00;;;;;;5034190;28;20177;-74
2021/10/19 09:19:29;;;;;;;0.63;0.63;;;16.30;1.00;;;;;;5035889;28;20501;-75
2021/10/19 09:22:06;;;;;;;0.40;0.20;;;16.30;1.00;;;;;;5036199;28;20421;-75
2021/10/19 09:24:36;;;;;;;2.00;1.40;;;16.50;1.00;;;;;;5035916;28;20460;-75
2021/10/19 09:27:08;;;;;;;2.43;2.23;;;16.60;1.00;;;;;;5036129;28;20965;-73
2021/10/19 09:29:36;;;;;;;0.40;0.27;;;16.50;1.00;;;;;;5018276;28;20456;-73
2021/10/19 09:32:05;;;;;;;0.90;0.30;;;16.50;1.00;;;;;;5036794;28;20741;-70
2021/10/19 09:34:37;;;;;;;4.10;0.57;;;16.50;1.00;;;;;;5037950;28;20189;-72
2021/10/19 09:37:09;;;;;;;0.40;0.30;;;16.40;1.00;;;;;;5019099;28;20436;-71
2021/10/19 09:39:38;;;;;;;0.40;0.20;;;16.40;1.00;;;;;;5036697;28;20212;-70
2021/10/19 09:42:09;;;;;;;0.40;0.10;;;16.70;1.00;;;;;;5036039;28;20464;-70
2021/10/19 09:44:38;;;;;;;2.73;1.53;;;17.00;1.00;;;;;;5036009;28;20468;-67
2021/10/19 09:47:05;;;;;;;0.40;0.17;;;17.00;99.90;;;;;;5018536;28;20439;-69
2021/10/19 09:49:31;;;;;;;0.40;0.20;;;16.90;99.90;;;;;;5034758;28;20474;-70
2021/10/19 09:51:58;;;;;;;0.40;0.20;;;17.10;99.90;;;;;;5018638;28;20429;-71
2021/10/19 09:54:28;;;;;;;4.63;3.90;;;17.00;99.90;;;;;;5036327;28;20444;-70
2021/10/19 09:56:57;;;;;;;2.23;2.10;;;17.00;99.90;;;;;;5036408;28;20915;-71
2021/10/19 09:59:23;;;;;;;0.60;0.47;;;17.00;99.90;;;;;;5035314;28;20516;-72
2021/10/19 10:01:49;;;;;;;0.40;0.17;;;16.70;1.00;;;;;;5017879;28;20503;-70
2021/10/19 10:04:15;;;;;;;0.40;0.20;;;17.00;1.00;;;;;;5035486;28;20978;-68
2021/10/19 10:06:42;;;;;;;3.10;2.05;;;17.50;99.90;;;;;;5035379;28;20424;-70
2021/10/19 10:09:08;;;;;;;3.10;1.80;;;17.30;99.90;;;;;;5035140;28;20174;-73
2021/10/19 10:11:39;;;;;;;0.40;0.20;;;17.30;99.90;;;;;;5035312;28;20431;-72
2021/10/19 10:14:07;;;;;;;0.40;0.20;;;17.20;99.90;;;;;;5036291;28;20428;-71
2021/10/19 10:16:49;;;;;;;0.47;0.27;;;17.20;99.90;;;;;;5035279;28;20515;-72
2021/10/19 10:19:17;;;;;;;0.40;0.13;;;17.50;99.90;;;;;;5034974;28;20431;-68
2021/10/19 10:21:49;;;;;;;1.43;1.07;;;17.80;99.90;;;;;;5035254;28;20432;-66
2021/10/19 10:24:29;;;;;;;1.47;1.37;;;17.90;99.90;;;;;;5031685;28;20806;-63
2021/10/19 10:27:16;;;;;;;1.00;0.80;;;18.00;99.90;;;;;;5006089;28;21206;-69
2021/10/19 10:29:48;;;;;;;0.93;0.83;;;17.90;99.90;;;;;;5032606;28;20869;-72
2021/10/19 10:32:37;;;;;;;1.20;1.17;;;17.80;99.90;;;;;;5028242;28;20424;-72
2021/10/19 10:35:12;;;;;;;3.13;2.93;;;17.60;99.90;;;;;;5018358;28;20434;-71
2021/10/19 10:37:39;;;;;;;0.40;0.20;;;17.70;99.90;;;;;;5035128;28;20935;-70
2021/10/19 10:40:10;;;;;;;2.10;0.87;;;17.80;99.90;;;;;;5034921;28;20497;-70
2021/10/19 10:42:43;;;;;;;0.40;0.20;;;17.90;99.90;;;;;;5034576;28;20524;-69
2021/10/19 10:45:23;;;;;;;3.53;1.97;;;18.00;99.90;;;;;;5034764;28;20464;-70
2021/10/19 10:48:00;;;;;;;3.03;2.20;;;18.30;7.20;;;;;;5033503;28;20419;-70
2021/10/19 10:50:28;;;;;;;0.40;0.20;;;18.20;95.40;;;;;;5033638;28;20439;-71
2021/10/19 10:53:08;;;;;;;0.87;0.83;;;18.10;99.90;;;;;;5033489;28;20432;-71
2021/10/19 10:55:38;;;;;;;1.80;1.70;;;18.20;99.90;;;;;;5034492;28;20517;-70
2021/10/19 10:58:04;;;;;;;0.50;0.30;;;18.20;39.20;;;;;;5033851;28;20451;-70
2021/10/19 11:00:30;;;;;;;1.80;0.70;;;18.10;99.90;;;;;;5034132;28;20428;-69
2021/10/19 11:03:10;;;;;;;2.20;1.70;;;17.90;99.90;;;;;;5034396;28;20420;-69
2021/10/19 11:05:49;;;;;;;0.40;0.20;;;17.50;1.00;;;;;;5034090;28;20542;-66
2021/10/19 11:08:21;;;;;;;1.17;0.87;;;17.60;1.00;;;;;;5033984;28;20428;-66
2021/10/19 11:10:50;;;;;;;1.37;1.27;;;17.60;1.00;;;;;;5016382;28;20776;-67
2021/10/19 11:13:16;;;;;;;0.40;0.20;;;17.40;1.00;;;;;;5034095;28;20440;-69
2021/10/19 11:15:52;;;;;;;1.90;1.27;;;17.50;1.00;;;;;;5034880;28;20490;-70
2021/10/19 11:18:18;;;;;;;3.07;2.03;;;17.40;1.00;;;;;;5035660;28;20583;-69
2021/10/19 11:20:56;;;;;;;0.90;0.77;;;17.40;1.00;;;;;;5034684;28;20463;-70
2021/10/19 11:23:23;;;;;;;0.50;0.30;;;17.40;1.00;;;;;;5034467;28;20223;-72
2021/10/19 11:25:49;;;;;;;0.63;0.53;;;17.60;1.00;;;;;;5046384;28;20494;-70
2021/10/19 11:28:15;;;;;;;6.00;4.10;;;17.70;1.00;;;;;;5053548;28;20803;-68
2021/10/19 11:30:41;;;;;;;0.40;0.20;;;17.50;1.00;;;;;;5053730;28;20473;-69
2021/10/19 11:33:08;;;;;;;0.40;0.17;;;17.30;1.00;;;;;;5036301;28;20431;-69
2021/10/19 11:35:33;;;;;;;2.33;0.97;;;17.50;1.00;;;;;;5053748;28;20184;-71
2021/10/19 11:37:59;;;;;;;1.43;1.23;;;17.40;1.00;;;;;;5019371;28;20428;-70
2021/10/19 11:40:25;;;;;;;1.43;0.87;;;17.40;1.00;;;;;;5053620;28;20185;-71
2021/10/19 11:42:54;;;;;;;2.60;1.50;;;17.50;1.00;;;;;;5053276;28;20446;-69
2021/10/19 11:45:22;;;;;;;1.43;0.97;;;17.30;1.00;;;;;;5053612;28;20474;-70
2021/10/19 11:47:51;;;;;;;2.20;1.40;;;17.30;1.00;;;;;;5053720;28;20566;-70
2021/10/19 11:50:21;;;;;;;0.47;0.33;;;17.30;1.00;;;;;;5039814;28;20435;-69
2021/10/19 11:52:47;;;;;;;0.40;0.20;;;17.30;1.00;;;;;;5031021;28;20438;-67
2021/10/19 11:55:15;;;;;;;6.77;1.07;;;17.30;1.00;;;;;;5016034;28;20515;-67
2021/10/19 11:57:40;;;;;;;0.40;0.20;;;17.50;1.00;;;;;;5016014;28;20976;-72
2021/10/19 12:00:09;;;;;;;0.40;0.20;;;17.70;1.00;;;;;;5015991;28;20511;-73
2021/10/19 12:02:35;;;;;;;2.33;1.23;;;17.70;1.00;;;;;;5033527;28;20665;-71
2021/10/19 12:05:09;;;;;;;0.80;0.80;;;17.80;1.00;;;;;;5033198;28;20471;-70
2021/10/19 12:07:35;;;;;;;1.07;0.97;;;17.90;1.00;;;;;;5033237;28;20288;-69
2021/10/19 12:10:09;;;;;;;0.40;0.20;;;17.70;1.00;;;;;;5032626;28;20463;-69
2021/10/19 12:12:35;;;;;;;0.40;0.20;;;17.80;1.00;;;;;;5037304;28;20538;-70
2021/10/19 12:15:00;;;;;;;1.43;1.33;;;17.80;1.00;;;;;;5037317;28;20577;-68
2021/10/19 12:17:26;;;;;;;1.60;1.50;;;17.50;1.00;;;;;;5036840;28;20189;-68
2021/10/19 12:19:53;;;;;;;0.70;0.40;;;17.30;1.00;;;;;;5019487;28;20192;-68
2021/10/19 12:22:19;;;;;;;0.70;0.50;;;17.20;1.00;;;;;;5036763;28;20558;-68
2021/10/19 12:24:47;;;;;;;0.47;0.33;;;17.40;1.00;;;;;;5036902;28;20464;-69
2021/10/19 12:27:18;;;;;;;0.40;0.20;;;17.60;1.00;;;;;;5036846;28;20234;-68
2021/10/19 12:29:46;;;;;;;0.40;0.20;;;17.80;1.00;;;;;;5036714;28;20456;-69
2021/10/19 12:32:12;;;;;;;0.40;0.20;;;17.90;1.00;;;;;;5037014;28;20439;-68
2021/10/19 12:34:38;;;;;;;0.40;0.23;;;18.20;1.00;;;;;;5036995;28;20424;-69
2021/10/19 12:37:08;;;;;;;1.27;0.80;;;18.20;1.00;;;;;;5036977;28;20439;-68
2021/10/19 12:39:41;;;;;;;1.37;1.27;;;18.10;1.00;;;;;;5036812;28;20259;-69
2021/10/19 12:42:07;;;;;;;0.50;0.20;;;17.80;1.00;;;;;;5036761;28;20436;-69
2021/10/19 12:44:33;;;;;;;2.10;2.00;;;17.70;1.00;;;;;;5036641;28;20459;-67
2021/10/19 12:47:02;;;;;;;0.47;0.40;;;17.60;1.00;;;;;;5036893;28;20423;-67
2021/10/19 12:49:28;;;;;;;3.73;2.40;;;17.30;1.00;;;;;;5036890;28;20432;-66